Time;durP1;ratioP1;P1;durP2;ratioP2;P2;SDS_P1;SDS_P2;PMS_P1;PMS_P2;Temp;Humidity;BMP_temperature;BMP_pressure;BME280_temperature;BME280_humidity;BME280_pressure;Samples;Min_cycle;Max_cycle;Signal;HPM_P1;HPM_P2
2023/03/18 00:01:45;;;;;;;2.00;1.80;;;13.00;98.20;;;;;;4986813;28;20415;-67
2023/03/18 00:04:11;;;;;;;2.00;1.50;;;13.00;98.60;;;;;;4985160;28;20457;-69
2023/03/18 00:06:37;;;;;;;2.17;1.50;;;12.90;97.80;;;;;;4985396;28;20511;-68
2023/03/18 00:09:03;;;;;;;2.57;1.73;;;12.80;98.00;;;;;;4986460;28;20266;-70
2023/03/18 00:11:30;;;;;;;3.20;1.80;;;12.80;98.20;;;;;;4984835;28;20439;-68
2023/03/18 00:13:56;;;;;;;3.43;1.80;;;12.90;98.30;;;;;;4986626;28;20928;-68
2023/03/18 00:16:23;;;;;;;3.77;1.63;;;12.80;98.40;;;;;;4986093;28;20472;-69
2023/03/18 00:18:48;;;;;;;3.67;2.00;;;12.80;98.40;;;;;;4984501;28;20510;-68
2023/03/18 00:21:15;;;;;;;4.20;3.00;;;12.70;98.40;;;;;;4986801;28;20513;-69
2023/03/18 00:23:41;;;;;;;1.90;1.67;;;12.60;98.60;;;;;;4986021;28;20194;-70
2023/03/18 00:26:07;;;;;;;2.87;1.80;;;12.60;98.40;;;;;;4986351;28;20437;-69
2023/03/18 00:28:33;;;;;;;2.17;1.57;;;12.60;98.80;;;;;;4986679;28;20169;-69
2023/03/18 00:31:07;;;;;;;2.40;1.90;;;12.50;99.00;;;;;;4985632;28;20419;-68
2023/03/18 00:33:38;;;;;;;3.53;1.60;;;12.40;99.30;;;;;;4985845;28;20188;-69
2023/03/18 00:36:05;;;;;;;1.77;1.60;;;12.30;99.30;;;;;;4986410;28;20469;-72
2023/03/18 00:38:31;;;;;;;3.10;1.80;;;12.40;99.50;;;;;;4985883;28;20419;-68
2023/03/18 00:41:12;;;;;;;2.20;1.80;;;12.40;99.00;;;;;;4986193;28;20939;-69
2023/03/18 00:43:51;;;;;;;3.00;1.83;;;12.40;99.20;;;;;;4985666;28;20532;-70
2023/03/18 00:46:19;;;;;;;2.90;1.53;;;12.50;99.40;;;;;;4984564;28;20440;-68
2023/03/18 00:48:46;;;;;;;2.87;1.80;;;12.60;99.10;;;;;;4985378;28;20421;-71
2023/03/18 00:51:15;;;;;;;2.90;1.83;;;12.40;99.00;;;;;;4985414;28;20478;-70
2023/03/18 00:53:43;;;;;;;2.77;1.70;;;12.50;98.80;;;;;;4985380;28;20470;-68
2023/03/18 00:56:09;;;;;;;2.33;1.50;;;12.60;98.90;;;;;;4984909;28;20878;-69
2023/03/18 00:58:36;;;;;;;3.83;2.10;;;12.70;98.80;;;;;;4985278;28;20484;-70
2023/03/18 01:01:03;;;;;;;7.07;2.13;;;12.70;98.80;;;;;;4985575;28;20594;-73
2023/03/18 01:03:29;;;;;;;2.60;1.90;;;12.50;99.10;;;;;;4985270;28;20461;-70
2023/03/18 01:05:55;;;;;;;3.10;1.80;;;12.40;99.30;;;;;;4985460;28;20957;-69
2023/03/18 01:08:20;;;;;;;2.20;1.70;;;12.50;99.80;;;;;;4985452;28;20463;-68
2023/03/18 01:10:47;;;;;;;2.20;1.83;;;12.30;99.70;;;;;;4983615;28;20425;-70
2023/03/18 01:13:14;;;;;;;2.90;1.80;;;12.30;99.90;;;;;;4985877;28;20917;-72
2023/03/18 01:15:41;;;;;;;2.03;1.83;;;12.40;99.70;;;;;;4984500;28;20814;-71
2023/03/18 01:18:09;;;;;;;4.50;2.10;;;12.30;99.70;;;;;;4985173;28;20490;-72
2023/03/18 01:20:36;;;;;;;2.70;1.83;;;12.40;99.90;;;;;;4985682;28;20463;-71
2023/03/18 01:23:03;;;;;;;2.80;1.83;;;12.30;99.90;;;;;;4984853;28;20533;-69
2023/03/18 01:25:28;;;;;;;3.07;2.07;;;12.20;99.90;;;;;;4985431;28;20435;-69
2023/03/18 01:27:54;;;;;;;3.40;1.83;;;12.30;99.90;;;;;;4984368;28;20415;-70
2023/03/18 01:30:20;;;;;;;2.57;2.03;;;12.20;99.90;;;;;;4982961;28;20613;-71
2023/03/18 01:32:46;;;;;;;3.60;2.13;;;12.30;99.90;;;;;;4984491;28;20187;-70
2023/03/18 01:35:12;;;;;;;2.23;2.00;;;12.30;99.50;;;;;;4984983;28;20200;-70
2023/03/18 01:37:38;;;;;;;2.47;1.73;;;12.30;99.40;;;;;;4985126;28;20424;-67
2023/03/18 01:40:05;;;;;;;2.20;1.90;;;12.40;98.70;;;;;;5012886;22;20298;-68
2023/03/18 01:42:31;;;;;;;3.10;1.60;;;12.50;98.40;;;;;;5003493;28;20511;-69
2023/03/18 01:45:29;;;;;;;2.87;1.90;;;12.60;98.10;;;;;;5003148;28;20417;-68
2023/03/18 01:47:56;;;;;;;4.73;2.03;;;12.80;98.10;;;;;;4991833;28;20201;-69
2023/03/18 01:50:26;;;;;;;2.80;1.70;;;12.70;97.60;;;;;;5003374;28;20474;-71
2023/03/18 01:52:55;;;;;;;2.90;1.60;;;12.80;95.40;;;;;;5003725;28;20432;-71
2023/03/18 01:55:25;;;;;;;2.10;1.67;;;13.00;96.30;;;;;;5003808;28;20692;-70
2023/03/18 01:57:51;;;;;;;2.97;1.73;;;13.00;97.00;;;;;;5003039;28;20419;-69
2023/03/18 02:00:18;;;;;;;3.70;1.70;;;13.00;96.70;;;;;;5003150;28;20806;-69
2023/03/18 02:02:46;;;;;;;2.90;1.63;;;13.10;96.90;;;;;;5002836;28;20536;-69
2023/03/18 02:05:16;;;;;;;3.70;1.80;;;13.00;95.30;;;;;;5003190;28;20410;-70
2023/03/18 02:07:43;;;;;;;4.13;1.53;;;13.10;95.20;;;;;;5002619;28;21001;-68
2023/03/18 02:10:17;;;;;;;2.13;1.30;;;13.20;95.50;;;;;;5003150;28;20426;-68
2023/03/18 02:12:47;;;;;;;3.70;1.60;;;13.20;94.90;;;;;;5003202;28;20860;-69
2023/03/18 02:15:17;;;;;;;3.70;1.70;;;13.30;94.20;;;;;;5001597;28;21181;-69
2023/03/18 02:17:48;;;;;;;4.63;1.60;;;13.50;93.30;;;;;;5003170;28;20449;-69
2023/03/18 02:20:41;;;;;;;5.03;1.70;;;13.60;93.00;;;;;;5003219;28;20469;-69
2023/03/18 02:23:25;;;;;;;2.67;1.40;;;13.70;93.30;;;;;;5003674;28;20454;-69
2023/03/18 02:26:20;;;;;;;2.60;1.40;;;13.70;93.40;;;;;;5003699;28;20509;-69
2023/03/18 02:28:50;;;;;;;2.60;1.63;;;13.70;93.70;;;;;;5001524;28;20430;-69
2023/03/18 02:31:16;;;;;;;3.00;1.50;;;13.80;94.10;;;;;;5002686;28;21350;-72
2023/03/18 02:33:43;;;;;;;2.57;1.73;;;13.70;93.80;;;;;;5003408;28;20510;-70
2023/03/18 02:36:16;;;;;;;2.20;1.30;;;13.60;94.40;;;;;;5002814;28;20838;-72
2023/03/18 02:38:43;;;;;;;2.57;1.83;;;13.50;94.60;;;;;;5002313;28;20445;-71
2023/03/18 02:41:18;;;;;;;2.60;1.70;;;13.50;93.60;;;;;;5002741;28;20453;-70
2023/03/18 02:43:44;;;;;;;1.53;1.20;;;13.40;94.60;;;;;;5003196;28;20459;-70
2023/03/18 02:46:14;;;;;;;1.90;1.50;;;13.40;94.40;;;;;;5003379;28;20780;-70
2023/03/18 02:48:43;;;;;;;1.70;1.40;;;13.20;95.20;;;;;;5001867;28;20464;-70
2023/03/18 02:51:10;;;;;;;2.37;1.43;;;13.10;95.20;;;;;;5002606;28;20474;-74
2023/03/18 02:53:37;;;;;;;2.37;1.63;;;13.10;95.90;;;;;;5002590;28;21208;-72
2023/03/18 02:56:03;;;;;;;3.10;1.40;;;13.00;96.20;;;;;;5000997;28;20815;-71
2023/03/18 02:58:29;;;;;;;3.20;1.37;;;12.90;96.10;;;;;;5001559;28;20429;-71
2023/03/18 03:00:56;;;;;;;2.37;1.30;;;12.90;96.10;;;;;;5003122;28;20437;-70
2023/03/18 03:03:22;;;;;;;2.40;1.40;;;12.90;96.20;;;;;;5002446;28;20250;-70
2023/03/18 03:05:47;;;;;;;1.67;1.57;;;13.00;95.60;;;;;;5002983;28;20414;-72
2023/03/18 03:08:14;;;;;;;3.23;1.83;;;13.00;97.00;;;;;;5002310;28;20528;-70
2023/03/18 03:10:40;;;;;;;2.80;1.57;;;12.70;96.90;;;;;;5004406;28;20196;-73
2023/03/18 03:13:06;;;;;;;3.10;1.70;;;12.60;97.40;;;;;;5007045;28;20499;-70
2023/03/18 03:15:32;;;;;;;2.43;1.80;;;12.50;97.70;;;;;;5006602;28;20425;-70
2023/03/18 03:17:58;;;;;;;4.90;1.53;;;12.50;97.40;;;;;;5004833;28;20519;-70
2023/03/18 03:20:23;;;;;;;2.13;1.40;;;12.60;97.30;;;;;;5005391;28;20250;-70
2023/03/18 03:22:49;;;;;;;1.63;1.33;;;12.60;97.10;;;;;;5005271;28;20197;-71
2023/03/18 03:25:15;;;;;;;2.97;1.60;;;12.50;97.80;;;;;;5005653;28;20186;-71
2023/03/18 03:27:41;;;;;;;3.77;1.70;;;12.40;98.00;;;;;;5006550;28;21094;-70
2023/03/18 03:30:09;;;;;;;1.77;1.33;;;12.50;97.60;;;;;;5005664;28;20198;-71
2023/03/18 03:32:35;;;;;;;1.80;1.40;;;12.50;97.80;;;;;;5006204;28;20245;-70
2023/03/18 03:35:01;;;;;;;3.03;1.30;;;12.50;98.20;;;;;;5006478;28;20421;-70
2023/03/18 03:37:26;;;;;;;5.90;1.80;;;12.40;97.90;;;;;;5004034;28;20198;-71
2023/03/18 03:39:52;;;;;;;1.67;1.57;;;12.20;98.60;;;;;;5005753;28;20427;-70
2023/03/18 03:42:18;;;;;;;2.30;1.70;;;12.20;99.00;;;;;;5005119;28;20172;-72
2023/03/18 03:44:44;;;;;;;2.13;1.90;;;12.10;99.10;;;;;;5005237;28;20174;-70
2023/03/18 03:47:10;;;;;;;2.40;1.70;;;12.00;99.30;;;;;;5005490;28;21026;-70
2023/03/18 03:49:37;;;;;;;1.63;1.33;;;12.00;99.50;;;;;;5005936;28;20926;-70
2023/03/18 03:52:03;;;;;;;4.17;1.50;;;11.90;99.70;;;;;;5005637;28;20431;-70
2023/03/18 03:54:29;;;;;;;4.03;1.50;;;11.80;99.90;;;;;;5005712;28;20467;-70
2023/03/18 03:56:54;;;;;;;2.30;1.50;;;11.60;99.90;;;;;;5003673;28;20411;-71
2023/03/18 03:59:20;;;;;;;1.67;1.57;;;11.60;99.90;;;;;;5004281;28;20186;-71
2023/03/18 04:01:46;;;;;;;2.77;1.80;;;11.60;99.90;;;;;;5005538;28;20226;-71
2023/03/18 04:04:12;;;;;;;2.90;1.73;;;11.60;99.90;;;;;;5005489;28;20206;-70
2023/03/18 04:06:37;;;;;;;2.40;1.33;;;11.60;99.90;;;;;;5005311;28;20265;-73
2023/03/18 04:09:03;;;;;;;2.80;1.57;;;11.60;99.90;;;;;;5004959;28;20496;-70
2023/03/18 04:11:29;;;;;;;1.60;1.30;;;11.60;99.90;;;;;;5005211;28;20265;-70
2023/03/18 04:13:55;;;;;;;2.73;2.00;;;11.50;99.90;;;;;;5005284;28;20231;-70
2023/03/18 04:16:22;;;;;;;3.33;1.53;;;11.50;99.90;;;;;;5005239;28;20517;-70
2023/03/18 04:18:47;;;;;;;2.60;1.70;;;11.50;99.90;;;;;;5005335;28;21024;-73
2023/03/18 04:21:13;;;;;;;2.60;1.63;;;11.40;99.90;;;;;;5004201;28;20554;-70
2023/03/18 04:23:39;;;;;;;2.83;2.13;;;11.50;99.90;;;;;;5003751;28;20562;-70
2023/03/18 04:26:05;;;;;;;2.17;1.60;;;11.40;99.90;;;;;;5004915;28;20455;-70
2023/03/18 04:28:31;;;;;;;2.27;1.40;;;11.50;99.90;;;;;;5004746;28;20807;-69
2023/03/18 04:30:57;;;;;;;2.33;1.63;;;11.40;99.90;;;;;;5005230;28;20431;-70
2023/03/18 04:33:23;;;;;;;1.57;1.47;;;11.40;99.90;;;;;;5003565;28;20984;-71
2023/03/18 04:35:48;;;;;;;1.73;1.20;;;11.30;99.90;;;;;;5005140;28;20204;-71
2023/03/18 04:38:14;;;;;;;3.57;1.50;;;11.20;99.90;;;;;;5004019;28;20199;-70
2023/03/18 04:40:41;;;;;;;3.27;1.60;;;11.10;99.90;;;;;;5005495;28;20308;-70
2023/03/18 04:43:09;;;;;;;2.13;1.93;;;11.10;99.90;;;;;;5004788;28;20207;-70
2023/03/18 04:45:35;;;;;;;4.93;1.87;;;11.00;99.90;;;;;;5004260;28;20412;-70
2023/03/18 04:48:00;;;;;;;2.83;1.20;;;10.90;99.90;;;;;;5004833;28;20426;-71
2023/03/18 04:50:27;;;;;;;2.63;1.70;;;10.90;99.90;;;;;;5004685;28;20229;-71
2023/03/18 04:52:53;;;;;;;2.83;1.80;;;10.90;99.90;;;;;;5003011;28;20201;-74
2023/03/18 04:55:20;;;;;;;5.37;1.60;;;10.90;99.90;;;;;;5005352;28;20422;-70
2023/03/18 04:57:47;;;;;;;1.90;1.57;;;10.90;99.90;;;;;;5004418;28;20241;-73
2023/03/18 05:00:16;;;;;;;6.70;1.90;;;10.90;99.90;;;;;;5003867;28;20462;-71
2023/03/18 05:02:42;;;;;;;3.70;1.67;;;10.90;99.90;;;;;;5004411;28;20490;-71
2023/03/18 05:05:09;;;;;;;2.07;1.50;;;10.80;99.90;;;;;;5003558;28;20908;-70
2023/03/18 05:07:35;;;;;;;1.97;1.57;;;10.80;99.90;;;;;;5004027;28;20415;-70
2023/03/18 05:10:02;;;;;;;1.83;1.60;;;10.70;99.90;;;;;;5004289;28;21029;-70
2023/03/18 05:12:27;;;;;;;5.10;1.60;;;10.60;99.90;;;;;;5003039;28;20425;-71
2023/03/18 05:14:53;;;;;;;1.63;1.50;;;10.50;99.90;;;;;;5004296;28;20440;-73
2023/03/18 05:17:19;;;;;;;3.17;1.83;;;10.60;99.90;;;;;;5002840;28;20268;-70
2023/03/18 05:19:47;;;;;;;1.83;1.63;;;10.60;99.90;;;;;;5002766;28;20267;-71
2023/03/18 05:22:14;;;;;;;2.83;1.30;;;10.70;99.90;;;;;;5004528;28;20421;-71
2023/03/18 05:24:41;;;;;;;2.30;1.60;;;10.60;99.90;;;;;;5003736;28;20414;-71
2023/03/18 05:27:08;;;;;;;1.77;1.43;;;10.50;99.90;;;;;;5003829;28;20519;-70
2023/03/18 05:29:33;;;;;;;1.83;1.20;;;10.60;99.90;;;;;;5003942;28;20427;-70
2023/03/18 05:31:59;;;;;;;3.83;1.63;;;10.60;99.90;;;;;;5003637;28;20429;-70
2023/03/18 05:34:26;;;;;;;3.10;1.43;;;10.60;99.90;;;;;;5002805;28;20218;-70
2023/03/18 05:36:51;;;;;;;2.90;1.30;;;10.60;99.90;;;;;;5003698;28;20977;-70
2023/03/18 05:39:17;;;;;;;2.40;1.47;;;10.50;99.90;;;;;;5004304;28;20510;-70
2023/03/18 05:41:43;;;;;;;2.80;1.47;;;10.50;99.90;;;;;;5002106;28;20725;-70
2023/03/18 05:44:09;;;;;;;4.10;1.90;;;10.50;99.90;;;;;;5004333;28;20410;-70
2023/03/18 05:46:34;;;;;;;2.83;2.00;;;10.40;99.90;;;;;;5004253;28;20833;-72
2023/03/18 05:49:00;;;;;;;2.63;1.80;;;10.50;99.90;;;;;;5003373;28;20636;-70
2023/03/18 05:51:25;;;;;;;2.60;2.10;;;10.50;99.90;;;;;;5003829;28;20210;-70
2023/03/18 05:53:51;;;;;;;3.97;2.10;;;10.60;99.90;;;;;;5003744;28;20201;-73
2023/03/18 05:56:17;;;;;;;2.43;1.47;;;10.50;99.90;;;;;;5003942;28;20179;-71
2023/03/18 05:58:43;;;;;;;3.00;1.77;;;10.60;99.90;;;;;;5003099;28;20248;-72
2023/03/18 06:01:10;;;;;;;3.43;1.70;;;10.40;99.90;;;;;;5003652;28;20446;-73
2023/03/18 06:03:35;;;;;;;2.43;1.70;;;10.50;99.90;;;;;;5003702;28;20244;-70
2023/03/18 06:06:02;;;;;;;2.27;1.70;;;10.40;99.90;;;;;;5003461;28;20778;-70
2023/03/18 06:08:28;;;;;;;1.50;1.40;;;10.40;99.90;;;;;;5003812;28;20193;-71
2023/03/18 06:10:54;;;;;;;3.63;1.93;;;10.30;99.90;;;;;;5002953;28;20433;-71
2023/03/18 06:13:19;;;;;;;3.80;2.30;;;10.20;99.90;;;;;;5003455;28;20255;-71
2023/03/18 06:15:45;;;;;;;4.10;2.30;;;10.30;99.90;;;;;;5003639;28;20416;-71
2023/03/18 06:18:12;;;;;;;2.60;1.90;;;10.40;99.90;;;;;;5003469;28;20223;-71
2023/03/18 06:20:38;;;;;;;3.07;1.70;;;10.40;99.90;;;;;;5001709;28;20534;-71
2023/03/18 06:23:04;;;;;;;2.10;1.97;;;10.50;99.90;;;;;;5003237;28;20455;-71
2023/03/18 06:25:30;;;;;;;5.30;2.23;;;10.60;99.90;;;;;;5004204;28;20192;-72
2023/03/18 06:27:56;;;;;;;3.73;2.07;;;10.60;99.90;;;;;;5002536;28;20816;-72
2023/03/18 06:30:22;;;;;;;4.73;1.70;;;10.60;99.90;;;;;;4999762;28;20440;-73
2023/03/18 06:32:47;;;;;;;3.80;1.90;;;10.70;99.90;;;;;;5003204;28;20927;-71
2023/03/18 06:35:14;;;;;;;2.03;1.60;;;10.70;99.90;;;;;;5003347;28;20436;-69
2023/03/18 06:37:41;;;;;;;3.00;1.57;;;10.70;99.90;;;;;;5003187;28;20213;-70
2023/03/18 06:40:08;;;;;;;2.57;1.50;;;10.70;99.90;;;;;;5002826;28;20484;-71
2023/03/18 06:42:34;;;;;;;3.40;2.10;;;10.70;99.90;;;;;;5002919;28;20541;-69
2023/03/18 06:45:00;;;;;;;4.13;3.17;;;10.70;99.90;;;;;;5005319;28;20814;-70
2023/03/18 06:47:26;;;;;;;2.73;1.70;;;10.80;99.90;;;;;;5006011;28;20502;-70
2023/03/18 06:49:52;;;;;;;2.70;1.57;;;10.80;99.90;;;;;;5006781;28;20535;-70
2023/03/18 06:52:18;;;;;;;4.83;2.23;;;10.80;99.90;;;;;;5007023;28;20425;-69
2023/03/18 06:54:44;;;;;;;3.20;2.10;;;10.80;99.90;;;;;;5007154;28;20236;-72
2023/03/18 06:57:10;;;;;;;2.33;1.87;;;10.80;99.90;;;;;;5006924;28;20654;-71
2023/03/18 06:59:37;;;;;;;3.73;2.07;;;10.60;99.90;;;;;;5006933;28;20726;-70
2023/03/18 07:02:04;;;;;;;3.13;1.63;;;10.60;99.90;;;;;;5006646;28;20452;-71
2023/03/18 07:04:30;;;;;;;3.17;1.53;;;10.60;99.90;;;;;;5006704;28;20930;-71
2023/03/18 07:06:56;;;;;;;2.07;1.57;;;10.80;99.90;;;;;;5006944;28;20424;-70
2023/03/18 07:09:23;;;;;;;6.83;1.77;;;10.80;99.90;;;;;;5007374;28;20446;-70
2023/03/18 07:11:49;;;;;;;2.27;1.70;;;11.00;99.90;;;;;;5006562;28;20496;-70
2023/03/18 07:14:14;;;;;;;2.20;1.47;;;11.10;99.90;;;;;;5007066;28;20443;-73
2023/03/18 07:16:40;;;;;;;2.93;1.70;;;11.30;99.90;;;;;;5006777;28;20675;-69
2023/03/18 07:19:06;;;;;;;5.07;1.77;;;11.70;99.90;;;;;;5006768;28;20187;-71
2023/03/18 07:21:32;;;;;;;3.33;1.90;;;12.00;99.90;;;;;;5006640;28;20213;-71
2023/03/18 07:23:58;;;;;;;2.27;1.60;;;12.20;99.90;;;;;;5006480;28;20203;-73
2023/03/18 07:26:24;;;;;;;4.20;2.37;;;12.20;99.90;;;;;;5006606;28;20432;-71
2023/03/18 07:28:50;;;;;;;6.63;2.73;;;12.30;99.90;;;;;;5006328;28;20556;-71
2023/03/18 07:31:16;;;;;;;4.87;2.60;;;12.30;99.90;;;;;;5004372;28;20821;-70
2023/03/18 07:33:41;;;;;;;5.40;3.57;;;12.30;99.90;;;;;;5005818;28;20414;-71
2023/03/18 07:36:07;;;;;;;7.73;4.00;;;12.30;99.90;;;;;;5006255;28;20218;-71
2023/03/18 07:38:33;;;;;;;6.20;3.60;;;12.30;99.90;;;;;;5005723;28;20271;-72
2023/03/18 07:40:59;;;;;;;13.20;8.77;;;12.20;99.90;;;;;;5005873;28;20226;-70
2023/03/18 07:43:25;;;;;;;15.40;10.57;;;12.30;99.90;;;;;;5005885;28;20461;-72
2023/03/18 07:45:51;;;;;;;24.90;16.70;;;12.60;99.90;;;;;;5005919;28;20214;-71
2023/03/18 07:48:16;;;;;;;25.70;18.13;;;12.80;99.90;;;;;;5006328;28;20511;-71
2023/03/18 07:50:42;;;;;;;16.03;10.83;;;12.90;99.90;;;;;;5005936;28;20211;-72
2023/03/18 07:53:08;;;;;;;7.07;4.40;;;13.20;99.00;;;;;;5006269;28;20195;-70
2023/03/18 07:55:34;;;;;;;5.53;3.10;;;13.20;97.50;;;;;;5022145;22;20229;-68
2023/03/18 07:57:59;;;;;;;45.60;28.47;;;13.40;96.50;;;;;;5009495;28;20175;-67
2023/03/18 08:00:25;;;;;;;6.80;4.60;;;13.60;96.50;;;;;;5019061;28;20177;-70
2023/03/18 08:02:51;;;;;;;6.13;2.70;;;13.70;95.50;;;;;;5016698;28;20555;-69
2023/03/18 08:05:20;;;;;;;9.97;6.83;;;13.90;95.50;;;;;;5019391;28;20702;-70
2023/03/18 08:07:47;;;;;;;2.63;2.10;;;13.90;95.40;;;;;;5006235;28;20441;-71
2023/03/18 08:10:14;;;;;;;6.20;4.90;;;13.90;95.60;;;;;;5024739;28;20802;-68
2023/03/18 08:12:41;;;;;;;8.97;6.10;;;14.00;95.60;;;;;;5026200;28;20430;-68
2023/03/18 08:15:08;;;;;;;4.30;2.53;;;13.90;96.40;;;;;;5010726;28;20462;-69
2023/03/18 08:17:34;;;;;;;10.83;8.90;;;13.90;95.30;;;;;;5005958;28;20867;-70
2023/03/18 08:20:00;;;;;;;8.57;4.97;;;14.10;95.20;;;;;;5006254;28;20409;-71
2023/03/18 08:22:25;;;;;;;9.90;7.93;;;14.20;94.00;;;;;;5005852;28;20519;-67
2023/03/18 08:24:51;;;;;;;20.07;17.97;;;14.50;93.90;;;;;;5005973;28;20189;-70
2023/03/18 08:27:17;;;;;;;19.40;16.60;;;14.60;93.10;;;;;;5005288;28;20176;-71
2023/03/18 08:29:43;;;;;;;28.10;21.97;;;14.70;92.90;;;;;;5004699;28;20199;-69
2023/03/18 08:32:09;;;;;;;12.47;9.80;;;14.90;92.60;;;;;;5005306;28;20427;-71
2023/03/18 08:34:35;;;;;;;20.07;14.00;;;15.10;92.10;;;;;;5004664;28;20454;-70
2023/03/18 08:37:01;;;;;;;30.73;21.10;;;15.10;92.20;;;;;;5009958;28;20431;-70
2023/03/18 08:39:27;;;;;;;22.10;14.57;;;15.20;91.70;;;;;;5006458;28;20440;-70
2023/03/18 08:41:52;;;;;;;17.00;11.40;;;15.10;91.70;;;;;;5006295;28;20522;-71
2023/03/18 08:44:18;;;;;;;9.27;6.10;;;15.30;91.50;;;;;;5005571;28;20219;-67
2023/03/18 08:46:43;;;;;;;2.80;2.10;;;15.50;91.70;;;;;;5005873;28;20176;-68
2023/03/18 08:49:09;;;;;;;5.07;1.83;;;15.50;90.70;;;;;;5005262;28;20180;-72
2023/03/18 08:51:35;;;;;;;4.27;2.10;;;15.40;90.50;;;;;;5009160;28;20183;-69
2023/03/18 08:54:01;;;;;;;2.33;1.80;;;15.50;90.80;;;;;;5017879;28;20520;-69
2023/03/18 08:56:26;;;;;;;2.50;1.50;;;15.70;90.50;;;;;;5021194;28;20604;-72
2023/03/18 08:58:52;;;;;;;1.53;1.20;;;15.80;90.40;;;;;;5009922;28;20189;-71
2023/03/18 09:01:20;;;;;;;2.40;1.40;;;15.80;89.00;;;;;;5016752;28;20250;-72
2023/03/18 09:03:49;;;;;;;2.30;1.53;;;15.80;88.10;;;;;;5005805;28;20203;-71
2023/03/18 09:06:15;;;;;;;5.17;3.00;;;15.80;87.80;;;;;;5003313;28;20421;-69
2023/03/18 09:08:41;;;;;;;3.77;1.73;;;16.00;87.90;;;;;;5008177;28;20406;-71
2023/03/18 09:11:08;;;;;;;4.30;2.20;;;16.10;88.30;;;;;;5010005;28;20422;-71
2023/03/18 09:13:35;;;;;;;1.83;1.50;;;16.20;87.50;;;;;;5013093;28;20182;-72
2023/03/18 09:16:00;;;;;;;3.23;2.30;;;16.20;86.20;;;;;;5011454;28;20505;-73
2023/03/18 09:18:27;;;;;;;3.83;1.80;;;16.30;86.30;;;;;;5003032;28;20982;-69
2023/03/18 09:20:52;;;;;;;2.07;1.43;;;16.30;86.00;;;;;;5016011;28;20183;-73
2023/03/18 09:23:18;;;;;;;4.20;1.80;;;16.40;86.30;;;;;;5008223;28;20465;-69
2023/03/18 09:25:45;;;;;;;2.07;1.37;;;16.40;84.20;;;;;;5023529;28;20425;-70
2023/03/18 09:28:11;;;;;;;1.83;1.00;;;16.50;84.00;;;;;;5018626;28;20190;-70
2023/03/18 09:30:38;;;;;;;5.50;4.60;;;16.50;84.00;;;;;;5009706;28;20405;-70
2023/03/18 09:33:05;;;;;;;3.73;1.80;;;16.60;84.20;;;;;;5006215;28;20823;-69
2023/03/18 09:35:31;;;;;;;4.17;2.63;;;16.50;83.70;;;;;;5023025;28;20434;-70
2023/03/18 09:37:57;;;;;;;5.17;4.27;;;16.70;84.30;;;;;;5005090;28;20484;-69
2023/03/18 09:40:25;;;;;;;4.57;2.60;;;16.60;83.60;;;;;;5009316;28;21737;-71
2023/03/18 09:43:01;;;;;;;4.67;2.70;;;16.50;83.30;;;;;;5007413;28;20286;-71
2023/03/18 09:45:47;;;;;;;15.70;8.20;;;16.60;83.40;;;;;;5002534;28;20434;-71
2023/03/18 09:48:38;;;;;;;3.10;1.90;;;16.70;83.70;;;;;;5013247;28;20406;-70
2023/03/18 09:51:30;;;;;;;3.30;1.40;;;16.80;83.30;;;;;;5023093;28;20409;-71
2023/03/18 09:54:05;;;;;;;2.83;2.17;;;16.80;83.20;;;;;;4970668;28;1097531;-71
2023/03/18 09:56:34;;;;;;;4.13;2.40;;;16.90;85.10;;;;;;5023500;28;21113;-69
2023/03/18 09:59:14;;;;;;;4.00;2.50;;;16.70;88.40;;;;;;5014406;28;20422;-70
2023/03/18 10:01:42;;;;;;;4.07;2.80;;;16.70;89.80;;;;;;5008904;28;20422;-70
2023/03/18 10:04:23;;;;;;;3.83;2.63;;;16.80;90.00;;;;;;5003896;28;20509;-71
2023/03/18 10:06:56;;;;;;;8.40;2.80;;;17.10;88.70;;;;;;5003920;28;20497;-70
2023/03/18 10:09:40;;;;;;;3.00;2.50;;;17.40;87.30;;;;;;5002876;28;20505;-71
2023/03/18 10:12:25;;;;;;;9.33;3.00;;;17.30;86.60;;;;;;5015284;28;20448;-70
2023/03/18 10:15:03;;;;;;;3.07;2.47;;;17.20;87.90;;;;;;5014080;28;20439;-71
2023/03/18 10:17:45;;;;;;;5.50;3.50;;;17.20;87.40;;;;;;5011419;28;20416;-73
2023/03/18 10:20:25;;;;;;;3.80;2.57;;;17.20;88.00;;;;;;5006724;28;20406;-70
2023/03/18 10:23:28;;;;;;;3.90;2.80;;;17.30;89.50;;;;;;5002702;28;20820;-69
2023/03/18 10:26:00;;;;;;;4.00;1.97;;;17.50;88.00;;;;;;5008644;28;20410;-69
2023/03/18 10:28:49;;;;;;;4.30;2.47;;;17.60;85.30;;;;;;5003876;28;20415;-72
2023/03/18 10:31:35;;;;;;;6.13;2.10;;;17.80;85.50;;;;;;5007123;28;20421;-70
2023/03/18 10:34:05;;;;;;;2.90;1.70;;;17.90;84.00;;;;;;5013744;28;20932;-70
2023/03/18 10:36:31;;;;;;;2.57;1.57;;;18.00;83.20;;;;;;5012582;28;20493;-68
2023/03/18 10:38:59;;;;;;;5.33;1.83;;;18.30;82.00;;;;;;5023986;28;20409;-70
2023/03/18 10:41:35;;;;;;;2.30;1.70;;;18.50;83.10;;;;;;5018276;28;20182;-71
2023/03/18 10:44:06;;;;;;;2.33;1.63;;;18.60;80.70;;;;;;5015954;28;20891;-69
2023/03/18 10:46:33;;;;;;;3.67;1.63;;;18.70;79.70;;;;;;5023049;28;20410;-70
2023/03/18 10:49:10;;;;;;;2.43;1.53;;;18.40;79.60;;;;;;5022967;28;20881;-71
2023/03/18 10:51:42;;;;;;;2.23;1.67;;;18.60;78.50;;;;;;5021687;28;20756;-70
2023/03/18 10:54:34;;;;;;;2.23;1.40;;;18.90;77.70;;;;;;5023228;28;20461;-71
2023/03/18 10:57:00;;;;;;;6.43;1.53;;;19.30;75.10;;;;;;5003190;28;21155;-68
2023/03/18 10:59:27;;;;;;;2.43;1.27;;;19.50;73.20;;;;;;5006076;28;20426;-70
2023/03/18 11:01:59;;;;;;;3.70;1.40;;;19.90;73.30;;;;;;5014442;28;20183;-69
2023/03/18 11:04:27;;;;;;;4.77;1.50;;;19.90;74.10;;;;;;5018629;28;20476;-70
2023/03/18 11:07:00;;;;;;;2.33;1.20;;;19.50;72.20;;;;;;5023322;28;20830;-71
2023/03/18 11:09:35;;;;;;;5.20;1.67;;;19.40;71.80;;;;;;5016868;28;20398;-71
2023/03/18 11:12:06;;;;;;;2.83;1.70;;;19.50;72.10;;;;;;5006022;28;20838;-71
2023/03/18 11:14:36;;;;;;;2.00;1.60;;;19.60;73.20;;;;;;5016066;28;21470;-70
2023/03/18 11:17:04;;;;;;;3.13;1.70;;;19.50;71.30;;;;;;5018124;28;20480;-69
2023/03/18 11:19:40;;;;;;;2.23;1.77;;;20.20;71.90;;;;;;5021287;28;20429;-69
2023/03/18 11:22:09;;;;;;;1.70;1.60;;;21.20;68.00;;;;;;5023530;28;20814;-70
2023/03/18 11:24:41;;;;;;;2.00;1.50;;;23.20;63.70;;;;;;5023061;28;20461;-69
2023/03/18 11:27:13;;;;;;;3.10;1.77;;;23.60;58.20;;;;;;5018371;28;20418;-71
2023/03/18 11:29:42;;;;;;;2.50;1.57;;;25.10;55.90;;;;;;5018782;28;20406;-69
2023/03/18 11:32:22;;;;;;;2.70;1.40;;;25.90;53.00;;;;;;5016165;28;20453;-72
2023/03/18 11:34:54;;;;;;;1.63;1.20;;;25.70;51.90;;;;;;5012128;28;20460;-70
2023/03/18 11:37:20;;;;;;;2.10;1.20;;;26.00;49.90;;;;;;5006848;28;20434;-71
2023/03/18 11:39:47;;;;;;;1.93;1.40;;;27.20;48.40;;;;;;5007347;28;20414;-70
2023/03/18 11:42:20;;;;;;;2.50;1.37;;;27.50;45.40;;;;;;5009647;28;20542;-69
2023/03/18 11:44:48;;;;;;;3.90;1.20;;;27.00;45.40;;;;;;5007226;28;20442;-72
2023/03/18 11:47:22;;;;;;;2.30;1.13;;;28.20;44.50;;;;;;5026336;28;20459;-71
2023/03/18 11:49:48;;;;;;;2.33;1.40;;;27.40;43.20;;;;;;5019539;28;20822;-70
2023/03/18 11:52:32;;;;;;;2.77;1.00;;;28.00;44.30;;;;;;5026549;28;20843;-71
2023/03/18 11:54:58;;;;;;;1.50;1.00;;;28.50;40.00;;;;;;5013561;28;20224;-69
2023/03/18 11:58:02;;;;;;;1.87;1.20;;;27.20;40.90;;;;;;5020425;28;20410;-70
2023/03/18 12:00:35;;;;;;;2.07;1.00;;;26.20;42.00;;;;;;4984039;28;20838;-69
2023/03/18 12:03:22;;;;;;;1.50;0.97;;;26.40;41.70;;;;;;5016352;28;20450;-72
2023/03/18 12:06:22;;;;;;;1.70;1.33;;;27.60;41.60;;;;;;5022319;28;20450;-69
2023/03/18 12:09:05;;;;;;;2.80;1.17;;;27.40;39.40;;;;;;5012358;28;20404;-69
2023/03/18 12:12:00;;;;;;;1.93;1.20;;;28.30;40.70;;;;;;5016042;28;20418;-70
2023/03/18 12:15:00;;;;;;;2.80;1.30;;;27.70;41.60;;;;;;5016974;28;20426;-68
2023/03/18 12:17:48;;;;;;;4.17;1.50;;;27.20;41.40;;;;;;5025640;28;20414;-70
2023/03/18 12:20:39;;;;;;;2.30;1.30;;;27.00;41.60;;;;;;5032950;28;20467;-72
2023/03/18 12:23:31;;;;;;;3.50;1.77;;;27.60;40.70;;;;;;5007320;28;20524;-71
2023/03/18 12:26:34;;;;;;;2.27;1.20;;;28.30;39.50;;;;;;5024217;28;20786;-70
2023/03/18 12:29:12;;;;;;;2.10;1.20;;;27.90;40.40;;;;;;5015078;28;20427;-70
2023/03/18 12:31:50;;;;;;;2.23;1.43;;;27.60;41.90;;;;;;5025805;28;20433;-70
2023/03/18 12:34:16;;;;;;;2.70;1.10;;;29.30;39.70;;;;;;5007583;28;20525;-70
2023/03/18 12:36:50;;;;;;;2.97;1.60;;;30.00;39.00;;;;;;5021783;28;20549;-68
2023/03/18 12:39:34;;;;;;;3.40;1.60;;;30.20;38.80;;;;;;5025841;28;20183;-68
2023/03/18 12:42:14;;;;;;;3.27;1.40;;;30.40;38.50;;;;;;5011878;28;20418;-68
2023/03/18 12:45:07;;;;;;;2.10;1.60;;;30.80;37.30;;;;;;5024883;28;20467;-70
2023/03/18 12:47:56;;;;;;;2.10;1.13;;;29.20;37.00;;;;;;5025149;28;20932;-71
2023/03/18 12:50:40;;;;;;;3.93;1.70;;;28.70;39.90;;;;;;5004956;28;20512;-69
2023/03/18 12:53:21;;;;;;;6.60;1.90;;;30.60;37.90;;;;;;5005342;28;21027;-69
2023/03/18 12:55:52;;;;;;;2.40;1.47;;;30.80;36.00;;;;;;5019721;28;20863;-70
2023/03/18 12:58:33;;;;;;;3.67;1.53;;;31.20;35.80;;;;;;5015770;28;20423;-69